createdAt,value
2023-03-29T00:01:35.238Z,45.67
2023-03-29T00:06:42.558Z,73.68
2023-03-29T00:11:47.172Z,39.35
2023-03-29T00:16:51.750Z,14.27
2023-03-29T00:21:57.467Z,17.40
2023-03-29T00:27:02.302Z,11.93
2023-03-29T00:32:07.673Z,12.73
2023-03-29T00:37:14.997Z,12.02
2023-03-29T00:42:19.147Z,12.57
2023-03-29T00:47:27.529Z,31.35
2023-03-29T00:52:35.317Z,12.90
2023-03-29T00:57:41.626Z,12.95
2023-03-29T01:02:51.363Z,13.98
2023-03-29T01:08:02.683Z,13.27
2023-03-29T01:13:12.164Z,18.13
2023-03-29T01:18:16.794Z,14.07
2023-03-29T01:23:43.766Z,17.20
2023-03-29T01:28:54.200Z,17.90
2023-03-29T01:34:07.096Z,16.33
2023-03-29T01:39:11.281Z,16.63
2023-03-29T01:44:21.479Z,15.30
2023-03-29T01:49:30.385Z,16.70
2023-03-29T01:54:39.619Z,15.77
2023-03-29T01:59:48.679Z,15.45
2023-03-29T02:04:56.417Z,16.33
2023-03-29T02:10:02.325Z,15.55
2023-03-29T02:15:13.547Z,20.30
2023-03-29T02:20:22.812Z,20.50
2023-03-29T02:25:28.424Z,19.35
2023-03-29T02:30:39.747Z,18.77
2023-03-29T02:35:50.240Z,21.50
2023-03-29T02:40:55.493Z,17.75
2023-03-29T02:46:01.748Z,19.65
2023-03-29T02:51:13.788Z,18.15
2023-03-29T02:56:17.951Z,20.92
2023-03-29T03:01:23.969Z,20.73
2023-03-29T03:06:29.450Z,17.02
2023-03-29T03:11:33.600Z,19.48
2023-03-29T03:16:39.611Z,18.77
2023-03-29T03:21:44.409Z,19.23
2023-03-29T03:26:50.208Z,23.92
2023-03-29T03:31:57.645Z,22.45
2023-03-29T03:37:21.762Z,21.67
2023-03-29T03:42:28.446Z,22.85
2023-03-29T03:47:35.494Z,24.23
2023-03-29T03:52:54.060Z,23.20
2023-03-29T03:57:59.750Z,22.38
2023-03-29T04:03:07.324Z,23.63
2023-03-29T04:13:36.607Z,20.83
2023-03-29T04:19:05.828Z,23.30
2023-03-29T04:24:10.646Z,23.52
2023-03-29T04:29:18.279Z,25.07
2023-03-29T04:34:28.735Z,26.67
2023-03-29T04:39:34.507Z,29.73
2023-03-29T04:44:43.836Z,29.33
2023-03-29T04:49:52.223Z,26.73
2023-03-29T04:55:16.934Z,26.77
2023-03-29T05:00:39.852Z,27.67
2023-03-29T05:06:07.218Z,26.00
2023-03-29T05:11:14.028Z,22.90
2023-03-29T05:16:20.882Z,24.27
2023-03-29T05:21:28.607Z,20.98
2023-03-29T05:26:35.959Z,22.35
2023-03-29T05:31:41.733Z,20.48
2023-03-29T05:36:49.317Z,21.88
2023-03-29T05:41:55.218Z,24.42
2023-03-29T05:47:13.144Z,23.15
2023-03-29T05:52:18.786Z,24.25
2023-03-29T05:57:23.256Z,21.58
2023-03-29T06:02:28.768Z,24.15
2023-03-29T06:07:34.780Z,24.80
2023-03-29T06:12:51.313Z,24.20
2023-03-29T06:17:58.981Z,26.98
2023-03-29T06:23:04.631Z,18.30
2023-03-29T06:28:09.086Z,20.17
2023-03-29T06:33:14.434Z,16.13
2023-03-29T06:38:41.830Z,17.83
2023-03-29T06:44:09.067Z,18.23
2023-03-29T06:49:22.015Z,17.08
2023-03-29T06:55:07.763Z,15.35
2023-03-29T07:00:19.357Z,15.80
2023-03-29T07:05:42.582Z,14.80
2023-03-29T07:16:01.056Z,13.50
2023-03-29T07:21:17.662Z,11.52
2023-03-29T07:26:28.564Z,10.63
2023-03-29T07:31:40.917Z,9.30
2023-03-29T07:37:03.789Z,9.15
2023-03-29T07:42:09.807Z,7.07
2023-03-29T07:47:14.468Z,5.60
2023-03-29T07:52:19.017Z,6.95
2023-03-29T07:57:25.671Z,5.85
2023-03-29T08:02:32.129Z,5.55
2023-03-29T08:07:39.893Z,5.68
2023-03-29T08:13:06.398Z,5.90
2023-03-29T08:18:19.869Z,4.88
2023-03-29T08:23:24.371Z,4.28
2023-03-29T08:34:11.299Z,8.10
2023-03-29T08:39:39.721Z,5.65
2023-03-29T08:45:10.861Z,7.10
2023-03-29T08:50:16.145Z,14.95
2023-03-29T08:55:32.631Z,9.52
2023-03-29T09:01:11.715Z,7.82
2023-03-29T09:06:27.900Z,6.78
2023-03-29T09:11:58.035Z,5.68
2023-03-29T09:17:16.846Z,4.40
2023-03-29T09:22:29.249Z,3.40
2023-03-29T09:27:37.795Z,6.32
2023-03-29T09:32:58.891Z,3.67
2023-03-29T09:38:14.264Z,4.20
2023-03-29T09:43:29.448Z,3.80
2023-03-29T09:48:42.290Z,5.07
2023-03-29T09:53:47.344Z,3.90
2023-03-29T09:59:15.903Z,4.65
2023-03-29T10:04:22.814Z,3.75
2023-03-29T10:09:34.602Z,10.93
2023-03-29T10:14:54.526Z,6.40
2023-03-29T10:20:04.210Z,3.30
2023-03-29T10:25:14.791Z,3.20
2023-03-29T10:30:23.353Z,3.90
2023-03-29T10:35:35.138Z,4.60
2023-03-29T10:40:45.829Z,7.03
2023-03-29T10:45:51.469Z,5.38
2023-03-29T10:51:00.449Z,4.47
2023-03-29T10:56:23.156Z,4.22
2023-03-29T11:01:35.745Z,3.58
2023-03-29T11:06:52.817Z,3.85
2023-03-29T11:12:15.660Z,4.57
2023-03-29T11:17:33.164Z,24.08
2023-03-29T11:22:46.607Z,3.65
2023-03-29T11:27:58.703Z,4.20
2023-03-29T11:33:12.191Z,4.43
2023-03-29T11:38:28.284Z,3.47
2023-03-29T11:43:37.186Z,2.83
2023-03-29T11:48:49.047Z,4.10
2023-03-29T11:54:03.717Z,3.88
2023-03-29T11:59:15.210Z,3.95
2023-03-29T12:04:24.788Z,15.27
2023-03-29T12:14:56.800Z,4.43
2023-03-29T12:20:06.505Z,3.90
2023-03-29T12:25:20.193Z,5.40
2023-03-29T12:30:40.392Z,4.22
2023-03-29T12:35:57.112Z,4.43
2023-03-29T12:41:38.750Z,4.10
2023-03-29T12:47:24.596Z,8.38
2023-03-29T12:52:33.102Z,3.40
2023-03-29T12:57:44.716Z,11.50
2023-03-29T13:03:02.149Z,4.63
2023-03-29T13:08:24.505Z,7.10
2023-03-29T13:13:34.502Z,4.03
2023-03-29T13:18:50.007Z,7.07
2023-03-29T13:24:03.494Z,48.10
2023-03-29T13:29:25.556Z,4.53
2023-03-29T13:34:41.300Z,6.05
2023-03-29T13:39:51.873Z,8.80
2023-03-29T13:45:12.287Z,10.38
2023-03-29T13:50:20.327Z,4.38
2023-03-29T13:55:29.772Z,3.53
2023-03-29T14:00:42.340Z,6.32
2023-03-29T14:05:51.430Z,6.40
2023-03-29T14:10:56.835Z,3.05
2023-03-29T14:16:05.536Z,4.97
2023-03-29T14:21:13.023Z,3.80
2023-03-29T14:26:20.632Z,6.35
2023-03-29T14:31:27.891Z,6.82
2023-03-29T14:36:34.192Z,7.65
2023-03-29T14:41:40.084Z,12.48
2023-03-29T14:46:47.195Z,5.80
2023-03-29T14:51:52.882Z,8.07
2023-03-29T14:56:58.245Z,9.75
2023-03-29T15:02:04.017Z,29.48
2023-03-29T15:07:08.632Z,6.90
2023-03-29T15:12:17.357Z,7.55
2023-03-29T15:17:42.979Z,10.20
2023-03-29T15:22:57.966Z,7.50
2023-03-29T15:28:02.327Z,13.95
2023-03-29T15:33:16.552Z,5.88
2023-03-29T15:38:30.126Z,8.48
2023-03-29T15:43:38.260Z,7.38
2023-03-29T15:48:44.447Z,12.57
2023-03-29T15:53:48.847Z,10.45
2023-03-29T15:58:53.455Z,8.90
2023-03-29T16:03:59.505Z,6.82
2023-03-29T16:09:05.516Z,17.45
2023-03-29T16:14:19.791Z,7.38
2023-03-29T16:19:25.868Z,9.52
2023-03-29T16:24:32.491Z,7.13
2023-03-29T16:29:37.420Z,5.30
2023-03-29T16:34:43.530Z,15.82
2023-03-29T16:39:48.187Z,10.52
2023-03-29T16:44:52.622Z,12.05
2023-03-29T16:49:58.579Z,13.68
2023-03-29T16:55:02.931Z,13.15
2023-03-29T17:00:11.297Z,14.20
2023-03-29T17:05:18.438Z,13.15
2023-03-29T17:10:23.553Z,24.50
2023-03-29T17:15:28.040Z,21.70
2023-03-29T17:20:34.280Z,28.25
2023-03-29T17:25:38.661Z,12.02
2023-03-29T17:30:45.401Z,14.85
2023-03-29T17:35:51.639Z,22.70
2023-03-29T17:40:56.564Z,25.27
2023-03-29T17:46:01.503Z,20.48
2023-03-29T17:51:08.424Z,19.45
2023-03-29T17:56:13.002Z,19.63
2023-03-29T18:01:19.731Z,14.23
2023-03-29T18:06:25.662Z,22.75
2023-03-29T18:11:30.355Z,14.70
2023-03-29T18:16:34.813Z,14.93
2023-03-29T18:21:40.603Z,13.32
2023-03-29T18:26:44.737Z,15.85
2023-03-29T18:31:49.218Z,19.92
2023-03-29T18:36:55.014Z,12.43
2023-03-29T18:41:59.204Z,16.90
2023-03-29T18:47:03.934Z,12.50
2023-03-29T18:52:10.142Z,17.63
2023-03-29T18:57:15.029Z,9.82
2023-03-29T19:02:19.727Z,12.80
2023-03-29T19:07:25.713Z,13.45
2023-03-29T19:12:30.201Z,12.40
2023-03-29T19:17:34.584Z,12.25
2023-03-29T19:22:41.280Z,13.13
2023-03-29T19:27:46.481Z,15.23
2023-03-29T19:32:51.717Z,29.05
2023-03-29T19:37:57.637Z,14.38
2023-03-29T19:43:01.820Z,12.57
2023-03-29T19:48:07.322Z,16.98
2023-03-29T19:53:13.711Z,18.55
2023-03-29T19:58:18.295Z,16.75
2023-03-29T20:03:23.297Z,17.83
2023-03-29T20:08:29.823Z,25.30
2023-03-29T20:13:38.576Z,28.65
2023-03-29T20:18:45.009Z,30.38
2023-03-29T20:23:51.062Z,27.52
2023-03-29T20:28:55.463Z,14.00
2023-03-29T20:33:59.950Z,16.60
2023-03-29T20:39:06.464Z,15.15
2023-03-29T20:44:12.842Z,22.83
2023-03-29T20:49:17.712Z,23.60
2023-03-29T20:54:24.062Z,27.27
2023-03-29T20:59:29.845Z,22.75
2023-03-29T21:04:34.592Z,30.80
2023-03-29T21:09:42.423Z,33.50
2023-03-29T21:14:47.594Z,23.13
2023-03-29T21:19:52.184Z,28.98
2023-03-29T21:24:58.487Z,24.35
2023-03-29T21:30:03.384Z,17.88
2023-03-29T21:35:09.047Z,16.05
2023-03-29T21:40:15.634Z,13.13
2023-03-29T21:45:20.048Z,14.60
2023-03-29T21:50:24.581Z,13.02
2023-03-29T21:55:30.403Z,14.43
2023-03-29T22:00:34.929Z,12.23
2023-03-29T22:05:39.377Z,13.27
2023-03-29T22:10:45.340Z,11.95
2023-03-29T22:15:51.109Z,10.82
2023-03-29T22:20:55.820Z,10.05
2023-03-29T22:26:07.096Z,11.15
2023-03-29T22:31:13.350Z,9.43
2023-03-29T22:36:20.145Z,9.05
2023-03-29T22:41:27.836Z,8.85
2023-03-29T22:46:32.335Z,8.05
2023-03-29T22:51:36.795Z,8.13
2023-03-29T22:56:42.351Z,7.07
2023-03-29T23:01:47.143Z,7.95
2023-03-29T23:06:51.656Z,6.47
2023-03-29T23:11:57.422Z,5.55
2023-03-29T23:17:01.804Z,6.60
2023-03-29T23:22:06.082Z,7.78
2023-03-29T23:27:12.863Z,6.38
2023-03-29T23:32:17.398Z,6.00
2023-03-29T23:37:22.335Z,6.70
2023-03-29T23:42:28.093Z,6.30
2023-03-29T23:47:32.614Z,5.00
2023-03-29T23:52:38.523Z,5.60
2023-03-29T23:57:44.321Z,5.80
